< Cyclone 195903 1959 Season Cyclone 195905 >
Cyclone 195904 (BERTHA)
General InformationTrack Information on Google Maps || ResourceGoogle EarthGE AnimationAtom FeedGeoJSON
Detalied Best Track (Time Zone = UTC)
Year Month Day Hour Lat. Long. Pressure (hPa) Wind (kt) Class Image Chart
1959 1 4 01 -13.8 123.8 998 0 0 -- --
1959 1 5 01 -14.9 125.0 992 0 0 -- --
1959 1 5 22 -14.9 125.3 987 0 0 -- --
1959 1 6 01 -14.9 125.5 985 0 0 -- --
1959 1 7 01 -16.0 127.5 990 0 0 -- --
1959 1 8 01 -17.0 128.0 991 0 0 -- --
1959 1 8 03 -17.4 128.1 991 0 0 -- --
1959 1 9 01 -15.9 126.0 992 0 0 -- --
1959 1 9 06 -15.8 126.1 993 0 0 -- --
1959 1 10 01 -15.7 126.6 994 0 0 -- --
1959 1 10 12 -15.4 128.0 994 0 0 -- --
1959 1 10 22 -14.7 129.0 996 0 0 -- --
1959 1 12 23 -17.9 139.8 998 0 0 -- --
1959 1 13 23 -18.6 141.6 999 0 0 -- --
1959 1 14 05 -19.4 142.0 997 0 0 -- --
1959 1 14 23 -18.7 139.9 998 0 0 -- --
1959 1 15 05 -18.0 139.3 998 0 0 -- --
1959 1 15 11 -17.8 140.0 992 0 0 -- --
1959 1 15 23 -16.4 139.9 992 0 0 -- --
1959 1 17 17 -14.2 137.1 994 0 0 -- --
1959 1 17 23 -14.9 138.1 994 0 0 -- --
1959 1 18 23 -16.2 141.2 995 0 0 -- --
1959 1 19 05 -16.0 142.0 992 0 0 -- --
1959 1 19 11 -16.4 142.6 992 0 0 -- --
1959 1 19 17 -15.9 144.9 986 0 0 -- --
1959 1 19 23 -16.8 146.0 984 0 0 -- --
1959 1 20 05 -16.8 149.2 980 0 0 -- --
1959 1 20 11 -16.9 150.3 980 0 0 -- --
1959 1 20 17 -17.4 152.5 984 0 0 -- --
1959 1 20 23 -17.8 154.5 990 0 0 -- --
1959 1 21 09 -17.0 159.3 996 0 0 -- --
1959 1 21 17 -18.9 161.7 996 0 0 -- --
1959 1 21 23 -20.9 161.0 996 0 0 -- --
1959 1 22 09 -22.1 159.5 996 0 0 -- --
1959 1 22 23 -21.3 159.0 998 0 0 -- --
< Cyclone 195903 1959 Season Cyclone 195905 >

Help